Virtual LH

Virtual LH. There's no better way to fly
Since 2013.



AIRPORT MAP

METAR AND TAF INFORMATION

METAR FOR FAOR
ADDS - METARS form results

(1153 UTC 16 June 2019)
Data provider http://aviationweather.gov/metar/data/
 
METAR text: FAOR 161130Z VRB02KT CAVOK 20/M08 Q1029 NOSIG
Conditions at: FAOR (JOHANNESBURG/TAM, ZA) observed 1130 UTC 16 June 2019
Temperature: 20.0°C (68°F)
Dewpoint: -8.0°C (18°F) [RH = 14%]
Pressure (altimeter): 30.38 inches Hg (1029.0 mb)
Winds: variable direction winds at 2 MPH (2 knots; 1.0 m/s)
Visibility: 6 or more miles (10+ km)
Ceiling: ceiling and visibility are OK
Clouds: unknown
Weather: no significant weather observed at this time

METAR text: FAOR 161100Z 03005KT 330V110 CAVOK 19/M09 Q1030 NOSIG
Conditions at: FAOR (JOHANNESBURG/TAM, ZA) observed 1100 UTC 16 June 2019
Temperature: 19.0°C (66°F)
Dewpoint: -9.0°C (16°F) [RH = 14%]
Pressure (altimeter): 30.41 inches Hg (1030.0 mb)
Winds: from the NNE (30 degrees) at 6 MPH (5 knots; 2.6 m/s)
Visibility: 6 or more miles (10+ km)
Ceiling: ceiling and visibility are OK
Clouds: unknown
Weather: no significant weather observed at this time

Forecast for: FAOR (JOHANNESBURG/TAM, ZA)
Text: TAF FAOR 161000Z 1612/1718 VRB03KT CAVOK TX20/1612Z TN06/1705Z
Forecast period: 1200 to 1800 UTC 16 June 2019
Forecast type: FROM: standard forecast or significant change
Winds: variable direction winds at 3 MPH (3 knots; 1.5 m/s)
Visibility: 6 or more miles 10+ km)
Ceiling: unknown
Clouds: missing
Weather: no significant weather forecast for this period
Text: BECMG 1618/1620 35007KT
Forecast period: 1800 UTC 16 June 2019 to 0900 UTC 17 June 2019
Forecast type: BECOMING: Conditions expected to become as follows by 2000 UTC 16 June 2019
Winds: from the N (350 degrees) at 8 MPH (7 knots; 3.6 m/s)
Visibility: 6 or more miles 10+ km)
Ceiling: unknown
Clouds: missing
Weather: no significant weather forecast for this period
Text: BECMG 1709/1711 28008KT
Forecast period: 0900 to 1800 UTC 17 June 2019
Forecast type: BECOMING: Conditions expected to become as follows by 1100 UTC 17 June 2019
Winds: from the W (280 degrees) at 9 MPH (8 knots; 4.1 m/s)
Visibility: 6 or more miles 10+ km)
Ceiling: unknown
Clouds: missing
Weather: no significant weather forecast for this period

RUNWAY INFORMATION


AIRPORT FREQUENCIES


AIRPORT NEAR NAVIGATION AIDS